sensor_id;sensor_type;location;lat;lon;timestamp;P1;durP1;ratioP1;P2;durP2;ratioP2
41719;SDS011;27405;53.316;-6.294;2023-02-15T00:01:55;15.07;;;6.10;;
41719;SDS011;27405;53.316;-6.294;2023-02-15T00:04:22;17.38;;;5.60;;
41719;SDS011;27405;53.316;-6.294;2023-02-15T00:06:49;18.35;;;6.55;;
41719;SDS011;27405;53.316;-6.294;2023-02-15T00:09:15;16.88;;;5.88;;
41719;SDS011;27405;53.316;-6.294;2023-02-15T00:11:41;17.27;;;6.15;;
41719;SDS011;27405;53.316;-6.294;2023-02-15T00:14:17;14.80;;;5.95;;
41719;SDS011;27405;53.316;-6.294;2023-02-15T00:19:11;20.00;;;5.95;;
41719;SDS011;27405;53.316;-6.294;2023-02-15T00:21:38;18.48;;;5.97;;
41719;SDS011;27405;53.316;-6.294;2023-02-15T00:24:05;17.50;;;6.18;;
41719;SDS011;27405;53.316;-6.294;2023-02-15T00:26:33;15.97;;;6.10;;
41719;SDS011;27405;53.316;-6.294;2023-02-15T00:28:58;16.20;;;5.97;;
41719;SDS011;27405;53.316;-6.294;2023-02-15T00:31:25;19.92;;;6.10;;
41719;SDS011;27405;53.316;-6.294;2023-02-15T00:33:55;16.23;;;5.97;;
41719;SDS011;27405;53.316;-6.294;2023-02-15T00:36:25;13.85;;;5.88;;
41719;SDS011;27405;53.316;-6.294;2023-02-15T00:38:51;19.00;;;6.45;;
41719;SDS011;27405;53.316;-6.294;2023-02-15T00:41:17;16.00;;;5.70;;
41719;SDS011;27405;53.316;-6.294;2023-02-15T00:43:42;15.38;;;5.78;;
41719;SDS011;27405;53.316;-6.294;2023-02-15T00:46:08;17.05;;;6.25;;
41719;SDS011;27405;53.316;-6.294;2023-02-15T00:48:34;16.15;;;6.28;;
41719;SDS011;27405;53.316;-6.294;2023-02-15T00:51:00;18.40;;;6.82;;
41719;SDS011;27405;53.316;-6.294;2023-02-15T00:53:26;16.42;;;6.43;;
41719;SDS011;27405;53.316;-6.294;2023-02-15T00:55:52;16.35;;;6.22;;
41719;SDS011;27405;53.316;-6.294;2023-02-15T00:58:18;21.17;;;6.53;;
41719;SDS011;27405;53.316;-6.294;2023-02-15T01:00:44;17.80;;;6.45;;
41719;SDS011;27405;53.316;-6.294;2023-02-15T01:03:11;15.85;;;6.40;;
41719;SDS011;27405;53.316;-6.294;2023-02-15T01:05:38;15.65;;;6.13;;
41719;SDS011;27405;53.316;-6.294;2023-02-15T01:08:04;17.92;;;6.72;;
41719;SDS011;27405;53.316;-6.294;2023-02-15T01:10:29;18.00;;;6.63;;
41719;SDS011;27405;53.316;-6.294;2023-02-15T01:12:55;24.13;;;7.25;;
41719;SDS011;27405;53.316;-6.294;2023-02-15T01:15:21;21.52;;;8.25;;
41719;SDS011;27405;53.316;-6.294;2023-02-15T01:17:47;21.90;;;7.18;;
41719;SDS011;27405;53.316;-6.294;2023-02-15T01:20:21;18.42;;;7.35;;
41719;SDS011;27405;53.316;-6.294;2023-02-15T01:22:49;18.13;;;7.50;;
41719;SDS011;27405;53.316;-6.294;2023-02-15T01:25:16;18.38;;;7.05;;
41719;SDS011;27405;53.316;-6.294;2023-02-15T01:27:43;24.95;;;8.05;;
41719;SDS011;27405;53.316;-6.294;2023-02-15T01:30:09;17.90;;;7.82;;
41719;SDS011;27405;53.316;-6.294;2023-02-15T01:32:35;20.67;;;8.18;;
41719;SDS011;27405;53.316;-6.294;2023-02-15T01:35:01;20.95;;;8.23;;
41719;SDS011;27405;53.316;-6.294;2023-02-15T01:37:29;20.23;;;8.43;;
41719;SDS011;27405;53.316;-6.294;2023-02-15T01:39:56;19.88;;;8.10;;
41719;SDS011;27405;53.316;-6.294;2023-02-15T01:42:22;18.92;;;8.70;;
41719;SDS011;27405;53.316;-6.294;2023-02-15T01:44:53;18.13;;;9.20;;
41719;SDS011;27405;53.316;-6.294;2023-02-15T01:50:04;20.88;;;8.68;;
41719;SDS011;27405;53.316;-6.294;2023-02-15T01:52:31;20.38;;;8.35;;
41719;SDS011;27405;53.316;-6.294;2023-02-15T01:55:00;21.17;;;7.25;;
41719;SDS011;27405;53.316;-6.294;2023-02-15T01:57:27;22.95;;;7.57;;
41719;SDS011;27405;53.316;-6.294;2023-02-15T01:59:54;21.48;;;8.90;;
41719;SDS011;27405;53.316;-6.294;2023-02-15T02:02:23;19.05;;;8.57;;
41719;SDS011;27405;53.316;-6.294;2023-02-15T02:04:53;21.73;;;8.25;;
41719;SDS011;27405;53.316;-6.294;2023-02-15T02:07:24;22.27;;;8.10;;
41719;SDS011;27405;53.316;-6.294;2023-02-15T02:09:54;23.90;;;9.02;;
41719;SDS011;27405;53.316;-6.294;2023-02-15T02:12:20;25.85;;;9.73;;
41719;SDS011;27405;53.316;-6.294;2023-02-15T02:14:47;25.02;;;10.05;;
41719;SDS011;27405;53.316;-6.294;2023-02-15T02:28:08;25.02;;;11.55;;
41719;SDS011;27405;53.316;-6.294;2023-02-15T02:33:48;30.77;;;11.35;;
41719;SDS011;27405;53.316;-6.294;2023-02-15T02:36:44;30.42;;;10.13;;
41719;SDS011;27405;53.316;-6.294;2023-02-15T02:42:01;28.40;;;11.25;;
41719;SDS011;27405;53.316;-6.294;2023-02-15T02:44:50;26.58;;;11.23;;
41719;SDS011;27405;53.316;-6.294;2023-02-15T02:47:33;25.45;;;10.70;;
41719;SDS011;27405;53.316;-6.294;2023-02-15T02:50:12;26.35;;;9.90;;
41719;SDS011;27405;53.316;-6.294;2023-02-15T03:00:36;29.55;;;11.02;;
41719;SDS011;27405;53.316;-6.294;2023-02-15T03:03:30;25.15;;;11.05;;
41719;SDS011;27405;53.316;-6.294;2023-02-15T03:06:00;27.52;;;10.73;;
41719;SDS011;27405;53.316;-6.294;2023-02-15T03:08:42;29.42;;;10.80;;
41719;SDS011;27405;53.316;-6.294;2023-02-15T03:11:13;32.88;;;11.50;;
41719;SDS011;27405;53.316;-6.294;2023-02-15T03:13:40;29.15;;;11.70;;
41719;SDS011;27405;53.316;-6.294;2023-02-15T03:16:06;28.42;;;11.10;;
41719;SDS011;27405;53.316;-6.294;2023-02-15T03:18:54;26.02;;;10.10;;
41719;SDS011;27405;53.316;-6.294;2023-02-15T03:24:09;28.38;;;9.20;;
41719;SDS011;27405;53.316;-6.294;2023-02-15T03:26:40;27.38;;;9.55;;
41719;SDS011;27405;53.316;-6.294;2023-02-15T03:29:10;26.15;;;10.05;;
41719;SDS011;27405;53.316;-6.294;2023-02-15T03:31:38;29.13;;;10.32;;
41719;SDS011;27405;53.316;-6.294;2023-02-15T03:34:08;31.98;;;10.77;;
41719;SDS011;27405;53.316;-6.294;2023-02-15T03:36:39;26.00;;;9.55;;
41719;SDS011;27405;53.316;-6.294;2023-02-15T03:44:22;26.00;;;9.90;;
41719;SDS011;27405;53.316;-6.294;2023-02-15T03:46:54;33.75;;;11.82;;
41719;SDS011;27405;53.316;-6.294;2023-02-15T03:52:15;33.85;;;11.65;;
41719;SDS011;27405;53.316;-6.294;2023-02-15T03:54:42;32.55;;;11.63;;
41719;SDS011;27405;53.316;-6.294;2023-02-15T03:57:14;29.35;;;11.50;;
41719;SDS011;27405;53.316;-6.294;2023-02-15T04:00:27;29.52;;;11.57;;
41719;SDS011;27405;53.316;-6.294;2023-02-15T04:05:39;28.30;;;11.00;;
41719;SDS011;27405;53.316;-6.294;2023-02-15T04:08:06;31.17;;;10.68;;
41719;SDS011;27405;53.316;-6.294;2023-02-15T04:10:32;30.42;;;10.93;;
41719;SDS011;27405;53.316;-6.294;2023-02-15T04:13:17;28.65;;;10.32;;
41719;SDS011;27405;53.316;-6.294;2023-02-15T04:15:44;28.13;;;9.98;;
41719;SDS011;27405;53.316;-6.294;2023-02-15T04:18:28;28.85;;;9.93;;
41719;SDS011;27405;53.316;-6.294;2023-02-15T04:21:13;27.10;;;9.82;;
41719;SDS011;27405;53.316;-6.294;2023-02-15T04:23:57;33.78;;;11.00;;
41719;SDS011;27405;53.316;-6.294;2023-02-15T04:26:41;26.25;;;9.38;;
41719;SDS011;27405;53.316;-6.294;2023-02-15T04:29:06;21.50;;;8.52;;
41719;SDS011;27405;53.316;-6.294;2023-02-15T04:31:32;23.50;;;8.85;;
41719;SDS011;27405;53.316;-6.294;2023-02-15T04:33:58;27.58;;;9.40;;
41719;SDS011;27405;53.316;-6.294;2023-02-15T04:36:23;28.85;;;9.55;;
41719;SDS011;27405;53.316;-6.294;2023-02-15T04:38:49;33.30;;;9.32;;
41719;SDS011;27405;53.316;-6.294;2023-02-15T04:41:15;23.10;;;8.48;;
41719;SDS011;27405;53.316;-6.294;2023-02-15T04:43:40;21.50;;;8.38;;
41719;SDS011;27405;53.316;-6.294;2023-02-15T04:46:06;23.85;;;8.25;;
41719;SDS011;27405;53.316;-6.294;2023-02-15T04:48:32;27.85;;;8.60;;
41719;SDS011;27405;53.316;-6.294;2023-02-15T04:50:57;26.10;;;7.93;;
41719;SDS011;27405;53.316;-6.294;2023-02-15T04:53:23;27.45;;;8.52;;
41719;SDS011;27405;53.316;-6.294;2023-02-15T04:55:49;25.13;;;8.07;;
41719;SDS011;27405;53.316;-6.294;2023-02-15T04:58:14;29.70;;;7.93;;
41719;SDS011;27405;53.316;-6.294;2023-02-15T05:00:40;25.50;;;8.05;;
41719;SDS011;27405;53.316;-6.294;2023-02-15T05:03:06;25.10;;;7.65;;
41719;SDS011;27405;53.316;-6.294;2023-02-15T05:05:31;23.33;;;7.95;;
41719;SDS011;27405;53.316;-6.294;2023-02-15T05:07:57;24.92;;;7.72;;
41719;SDS011;27405;53.316;-6.294;2023-02-15T05:10:23;24.63;;;8.23;;
41719;SDS011;27405;53.316;-6.294;2023-02-15T05:12:48;23.25;;;7.60;;
41719;SDS011;27405;53.316;-6.294;2023-02-15T05:15:14;12.90;;;4.47;;
41719;SDS011;27405;53.316;-6.294;2023-02-15T05:17:40;16.02;;;2.72;;
41719;SDS011;27405;53.316;-6.294;2023-02-15T05:20:06;8.50;;;2.33;;
41719;SDS011;27405;53.316;-6.294;2023-02-15T05:22:32;6.18;;;1.42;;
41719;SDS011;27405;53.316;-6.294;2023-02-15T05:24:58;6.72;;;1.25;;
41719;SDS011;27405;53.316;-6.294;2023-02-15T05:27:42;3.88;;;1.17;;
41719;SDS011;27405;53.316;-6.294;2023-02-15T05:30:26;4.30;;;0.85;;
41719;SDS011;27405;53.316;-6.294;2023-02-15T05:32:52;3.75;;;1.00;;
41719;SDS011;27405;53.316;-6.294;2023-02-15T05:35:17;3.60;;;0.93;;
41719;SDS011;27405;53.316;-6.294;2023-02-15T05:37:43;3.17;;;0.80;;
41719;SDS011;27405;53.316;-6.294;2023-02-15T05:40:09;4.28;;;1.10;;
41719;SDS011;27405;53.316;-6.294;2023-02-15T05:42:35;4.43;;;1.70;;
41719;SDS011;27405;53.316;-6.294;2023-02-15T05:45:00;3.58;;;1.70;;
41719;SDS011;27405;53.316;-6.294;2023-02-15T05:47:26;4.05;;;1.20;;
41719;SDS011;27405;53.316;-6.294;2023-02-15T05:49:52;5.07;;;1.20;;
41719;SDS011;27405;53.316;-6.294;2023-02-15T05:52:17;2.50;;;1.33;;
41719;SDS011;27405;53.316;-6.294;2023-02-15T05:54:43;1.98;;;1.10;;
41719;SDS011;27405;53.316;-6.294;2023-02-15T05:57:09;5.85;;;1.08;;
41719;SDS011;27405;53.316;-6.294;2023-02-15T05:59:34;1.88;;;0.75;;
41719;SDS011;27405;53.316;-6.294;2023-02-15T06:02:00;1.80;;;0.70;;
41719;SDS011;27405;53.316;-6.294;2023-02-15T06:04:26;1.40;;;0.57;;
41719;SDS011;27405;53.316;-6.294;2023-02-15T06:06:51;2.85;;;0.65;;
41719;SDS011;27405;53.316;-6.294;2023-02-15T06:09:17;1.02;;;0.80;;
41719;SDS011;27405;53.316;-6.294;2023-02-15T06:11:44;4.38;;;0.80;;
41719;SDS011;27405;53.316;-6.294;2023-02-15T06:14:10;1.35;;;0.57;;
41719;SDS011;27405;53.316;-6.294;2023-02-15T06:16:36;2.95;;;0.90;;
41719;SDS011;27405;53.316;-6.294;2023-02-15T06:19:02;6.75;;;0.80;;
41719;SDS011;27405;53.316;-6.294;2023-02-15T06:21:28;4.10;;;0.93;;
41719;SDS011;27405;53.316;-6.294;2023-02-15T06:23:55;2.33;;;1.00;;
41719;SDS011;27405;53.316;-6.294;2023-02-15T06:26:21;5.50;;;1.02;;
41719;SDS011;27405;53.316;-6.294;2023-02-15T06:28:46;1.58;;;1.00;;
41719;SDS011;27405;53.316;-6.294;2023-02-15T06:31:12;4.15;;;1.02;;
41719;SDS011;27405;53.316;-6.294;2023-02-15T06:33:38;2.67;;;1.00;;
41719;SDS011;27405;53.316;-6.294;2023-02-15T06:36:03;3.30;;;1.10;;
41719;SDS011;27405;53.316;-6.294;2023-02-15T06:38:29;4.25;;;0.90;;
41719;SDS011;27405;53.316;-6.294;2023-02-15T06:40:56;2.20;;;0.88;;
41719;SDS011;27405;53.316;-6.294;2023-02-15T06:43:22;4.82;;;1.20;;
41719;SDS011;27405;53.316;-6.294;2023-02-15T06:45:47;2.25;;;0.70;;
41719;SDS011;27405;53.316;-6.294;2023-02-15T06:48:13;0.80;;;0.60;;
41719;SDS011;27405;53.316;-6.294;2023-02-15T06:50:39;2.75;;;0.95;;
41719;SDS011;27405;53.316;-6.294;2023-02-15T06:53:05;3.03;;;0.60;;
41719;SDS011;27405;53.316;-6.294;2023-02-15T06:55:30;0.80;;;0.57;;
41719;SDS011;27405;53.316;-6.294;2023-02-15T06:57:56;1.48;;;0.70;;
41719;SDS011;27405;53.316;-6.294;2023-02-15T07:00:22;2.05;;;0.73;;
41719;SDS011;27405;53.316;-6.294;2023-02-15T07:02:52;3.83;;;1.02;;
41719;SDS011;27405;53.316;-6.294;2023-02-15T07:05:23;5.40;;;1.30;;
41719;SDS011;27405;53.316;-6.294;2023-02-15T07:07:49;3.42;;;0.77;;
41719;SDS011;27405;53.316;-6.294;2023-02-15T07:10:15;3.28;;;0.82;;
41719;SDS011;27405;53.316;-6.294;2023-02-15T07:12:41;3.53;;;1.00;;
41719;SDS011;27405;53.316;-6.294;2023-02-15T07:15:14;4.22;;;0.90;;
41719;SDS011;27405;53.316;-6.294;2023-02-15T07:17:42;3.25;;;0.93;;
41719;SDS011;27405;53.316;-6.294;2023-02-15T07:20:10;3.15;;;0.75;;
41719;SDS011;27405;53.316;-6.294;2023-02-15T07:22:37;3.25;;;0.73;;
41719;SDS011;27405;53.316;-6.294;2023-02-15T07:25:04;1.75;;;0.60;;
41719;SDS011;27405;53.316;-6.294;2023-02-15T07:27:31;3.80;;;1.15;;
41719;SDS011;27405;53.316;-6.294;2023-02-15T07:29:58;1.83;;;0.63;;
41719;SDS011;27405;53.316;-6.294;2023-02-15T07:32:27;1.92;;;0.57;;
41719;SDS011;27405;53.316;-6.294;2023-02-15T07:34:54;2.42;;;0.60;;
41719;SDS011;27405;53.316;-6.294;2023-02-15T07:37:20;4.20;;;1.33;;
41719;SDS011;27405;53.316;-6.294;2023-02-15T07:39:45;2.25;;;0.75;;
41719;SDS011;27405;53.316;-6.294;2023-02-15T07:42:11;4.18;;;0.90;;
41719;SDS011;27405;53.316;-6.294;2023-02-15T07:44:37;3.20;;;0.95;;
41719;SDS011;27405;53.316;-6.294;2023-02-15T07:47:02;2.30;;;1.17;;
41719;SDS011;27405;53.316;-6.294;2023-02-15T07:49:28;2.25;;;0.70;;
41719;SDS011;27405;53.316;-6.294;2023-02-15T07:51:54;2.97;;;1.08;;
41719;SDS011;27405;53.316;-6.294;2023-02-15T07:54:20;2.70;;;0.80;;
41719;SDS011;27405;53.316;-6.294;2023-02-15T07:56:45;4.25;;;1.15;;
41719;SDS011;27405;53.316;-6.294;2023-02-15T07:59:11;3.13;;;0.80;;
41719;SDS011;27405;53.316;-6.294;2023-02-15T08:01:37;1.13;;;0.68;;
41719;SDS011;27405;53.316;-6.294;2023-02-15T08:04:04;3.40;;;0.70;;
41719;SDS011;27405;53.316;-6.294;2023-02-15T08:06:32;1.88;;;0.50;;
41719;SDS011;27405;53.316;-6.294;2023-02-15T08:09:00;2.58;;;0.60;;
41719;SDS011;27405;53.316;-6.294;2023-02-15T08:11:28;5.57;;;0.93;;
41719;SDS011;27405;53.316;-6.294;2023-02-15T08:19:20;1.98;;;0.70;;
41719;SDS011;27405;53.316;-6.294;2023-02-15T08:21:51;0.98;;;0.50;;
41719;SDS011;27405;53.316;-6.294;2023-02-15T08:24:29;1.02;;;0.50;;
41719;SDS011;27405;53.316;-6.294;2023-02-15T08:26:56;2.80;;;0.70;;
41719;SDS011;27405;53.316;-6.294;2023-02-15T08:29:23;2.15;;;0.90;;
41719;SDS011;27405;53.316;-6.294;2023-02-15T08:31:52;4.27;;;1.20;;
41719;SDS011;27405;53.316;-6.294;2023-02-15T08:34:20;1.52;;;0.90;;
41719;SDS011;27405;53.316;-6.294;2023-02-15T08:36:46;4.32;;;1.20;;
41719;SDS011;27405;53.316;-6.294;2023-02-15T08:39:13;2.67;;;1.20;;
41719;SDS011;27405;53.316;-6.294;2023-02-15T08:41:42;2.65;;;1.10;;
41719;SDS011;27405;53.316;-6.294;2023-02-15T08:44:08;2.88;;;1.17;;
41719;SDS011;27405;53.316;-6.294;2023-02-15T08:46:37;4.30;;;1.00;;
41719;SDS011;27405;53.316;-6.294;2023-02-15T08:49:07;1.98;;;0.90;;
41719;SDS011;27405;53.316;-6.294;2023-02-15T08:51:35;4.28;;;1.00;;
41719;SDS011;27405;53.316;-6.294;2023-02-15T08:54:06;2.72;;;0.90;;
41719;SDS011;27405;53.316;-6.294;2023-02-15T08:56:38;2.47;;;0.80;;
41719;SDS011;27405;53.316;-6.294;2023-02-15T08:59:06;4.32;;;0.73;;
41719;SDS011;27405;53.316;-6.294;2023-02-15T09:01:37;2.60;;;0.90;;
41719;SDS011;27405;53.316;-6.294;2023-02-15T09:04:04;2.72;;;0.57;;
41719;SDS011;27405;53.316;-6.294;2023-02-15T09:06:33;1.85;;;0.90;;
41719;SDS011;27405;53.316;-6.294;2023-02-15T09:08:59;0.95;;;0.73;;
41719;SDS011;27405;53.316;-6.294;2023-02-15T09:11:29;1.75;;;1.00;;
41719;SDS011;27405;53.316;-6.294;2023-02-15T09:13:56;3.03;;;0.90;;
41719;SDS011;27405;53.316;-6.294;2023-02-15T09:16:26;4.05;;;0.82;;
41719;SDS011;27405;53.316;-6.294;2023-02-15T09:18:54;2.33;;;0.80;;
41719;SDS011;27405;53.316;-6.294;2023-02-15T09:21:22;1.15;;;0.80;;
41719;SDS011;27405;53.316;-6.294;2023-02-15T09:23:51;2.38;;;0.47;;
41719;SDS011;27405;53.316;-6.294;2023-02-15T09:26:20;2.20;;;0.63;;
41719;SDS011;27405;53.316;-6.294;2023-02-15T09:28:48;3.38;;;0.88;;
41719;SDS011;27405;53.316;-6.294;2023-02-15T09:31:18;3.25;;;1.33;;
41719;SDS011;27405;53.316;-6.294;2023-02-15T09:33:46;2.45;;;1.15;;
41719;SDS011;27405;53.316;-6.294;2023-02-15T09:36:22;4.85;;;1.00;;
41719;SDS011;27405;53.316;-6.294;2023-02-15T09:39:24;1.65;;;1.20;;
41719;SDS011;27405;53.316;-6.294;2023-02-15T09:55:48;1.08;;;0.80;;
41719;SDS011;27405;53.316;-6.294;2023-02-15T09:58:33;3.72;;;1.10;;
41719;SDS011;27405;53.316;-6.294;2023-02-15T10:22:50;6.03;;;1.08;;
41719;SDS011;27405;53.316;-6.294;2023-02-15T10:25:41;3.80;;;1.10;;
41719;SDS011;27405;53.316;-6.294;2023-02-15T10:28:23;6.95;;;1.02;;
41719;SDS011;27405;53.316;-6.294;2023-02-15T10:31:10;5.75;;;1.00;;
41719;SDS011;27405;53.316;-6.294;2023-02-15T10:33:48;6.90;;;0.93;;
41719;SDS011;27405;53.316;-6.294;2023-02-15T10:44:54;6.57;;;1.05;;
41719;SDS011;27405;53.316;-6.294;2023-02-15T10:47:38;5.55;;;1.15;;
41719;SDS011;27405;53.316;-6.294;2023-02-15T10:56:01;7.65;;;1.05;;
41719;SDS011;27405;53.316;-6.294;2023-02-15T11:06:27;6.30;;;1.20;;
41719;SDS011;27405;53.316;-6.294;2023-02-15T11:08:54;8.70;;;1.13;;
41719;SDS011;27405;53.316;-6.294;2023-02-15T11:11:29;9.73;;;1.08;;
41719;SDS011;27405;53.316;-6.294;2023-02-15T11:14:02;8.10;;;1.00;;
41719;SDS011;27405;53.316;-6.294;2023-02-15T11:16:34;7.05;;;1.17;;
41719;SDS011;27405;53.316;-6.294;2023-02-15T11:19:11;3.58;;;1.17;;
41719;SDS011;27405;53.316;-6.294;2023-02-15T11:21:44;5.00;;;0.93;;
41719;SDS011;27405;53.316;-6.294;2023-02-15T11:24:16;9.90;;;1.40;;
41719;SDS011;27405;53.316;-6.294;2023-02-15T11:29:34;5.22;;;1.25;;
41719;SDS011;27405;53.316;-6.294;2023-02-15T11:40:28;7.85;;;1.52;;
41719;SDS011;27405;53.316;-6.294;2023-02-15T11:43:00;8.40;;;1.50;;
41719;SDS011;27405;53.316;-6.294;2023-02-15T11:45:31;7.15;;;1.42;;
41719;SDS011;27405;53.316;-6.294;2023-02-15T11:47:59;7.53;;;1.38;;
41719;SDS011;27405;53.316;-6.294;2023-02-15T11:50:27;7.95;;;1.65;;
41719;SDS011;27405;53.316;-6.294;2023-02-15T11:53:04;6.72;;;1.52;;
41719;SDS011;27405;53.316;-6.294;2023-02-15T11:55:36;12.07;;;1.73;;
41719;SDS011;27405;53.316;-6.294;2023-02-15T12:03:51;11.27;;;1.67;;
41719;SDS011;27405;53.316;-6.294;2023-02-15T12:06:32;12.07;;;2.08;;
41719;SDS011;27405;53.316;-6.294;2023-02-15T12:12:19;8.55;;;1.30;;
41719;SDS011;27405;53.316;-6.294;2023-02-15T12:14:54;6.47;;;2.13;;
41719;SDS011;27405;53.316;-6.294;2023-02-15T12:17:25;9.00;;;1.60;;
41719;SDS011;27405;53.316;-6.294;2023-02-15T12:19:55;10.02;;;1.67;;
41719;SDS011;27405;53.316;-6.294;2023-02-15T12:22:24;12.73;;;2.17;;
41719;SDS011;27405;53.316;-6.294;2023-02-15T12:24:54;17.00;;;2.42;;
41719;SDS011;27405;53.316;-6.294;2023-02-15T12:27:23;10.55;;;1.75;;
41719;SDS011;27405;53.316;-6.294;2023-02-15T12:30:01;11.98;;;1.98;;
41719;SDS011;27405;53.316;-6.294;2023-02-15T12:35:32;13.32;;;2.00;;
41719;SDS011;27405;53.316;-6.294;2023-02-15T12:38:05;10.97;;;2.13;;
41719;SDS011;27405;53.316;-6.294;2023-02-15T12:40:58;12.35;;;1.80;;
41719;SDS011;27405;53.316;-6.294;2023-02-15T12:43:27;11.60;;;1.45;;
41719;SDS011;27405;53.316;-6.294;2023-02-15T12:49:16;17.67;;;2.75;;
41719;SDS011;27405;53.316;-6.294;2023-02-15T12:51:46;17.77;;;2.35;;
41719;SDS011;27405;53.316;-6.294;2023-02-15T12:54:42;11.65;;;1.60;;
41719;SDS011;27405;53.316;-6.294;2023-02-15T12:59:49;10.10;;;2.10;;
41719;SDS011;27405;53.316;-6.294;2023-02-15T13:02:21;10.80;;;1.60;;
41719;SDS011;27405;53.316;-6.294;2023-02-15T13:04:53;18.00;;;2.42;;
41719;SDS011;27405;53.316;-6.294;2023-02-15T13:07:21;22.02;;;3.28;;
41719;SDS011;27405;53.316;-6.294;2023-02-15T13:09:48;10.38;;;1.98;;
41719;SDS011;27405;53.316;-6.294;2023-02-15T13:12:21;10.13;;;1.40;;
41719;SDS011;27405;53.316;-6.294;2023-02-15T13:14:51;11.10;;;1.80;;
41719;SDS011;27405;53.316;-6.294;2023-02-15T13:17:40;15.98;;;1.90;;
41719;SDS011;27405;53.316;-6.294;2023-02-15T13:20:18;13.85;;;2.42;;
41719;SDS011;27405;53.316;-6.294;2023-02-15T13:22:49;12.68;;;1.80;;
41719;SDS011;27405;53.316;-6.294;2023-02-15T13:27:44;9.25;;;1.40;;
41719;SDS011;27405;53.316;-6.294;2023-02-15T13:30:19;10.93;;;1.50;;
41719;SDS011;27405;53.316;-6.294;2023-02-15T13:33:02;12.82;;;2.00;;
41719;SDS011;27405;53.316;-6.294;2023-02-15T13:35:36;10.57;;;1.77;;
41719;SDS011;27405;53.316;-6.294;2023-02-15T13:38:30;12.02;;;2.17;;
41719;SDS011;27405;53.316;-6.294;2023-02-15T13:41:23;8.90;;;1.33;;
41719;SDS011;27405;53.316;-6.294;2023-02-15T13:52:29;6.32;;;1.33;;
41719;SDS011;27405;53.316;-6.294;2023-02-15T14:17:17;9.25;;;1.58;;
41719;SDS011;27405;53.316;-6.294;2023-02-15T14:20:02;14.02;;;1.88;;
41719;SDS011;27405;53.316;-6.294;2023-02-15T14:22:43;14.88;;;2.65;;
41719;SDS011;27405;53.316;-6.294;2023-02-15T14:28:17;7.32;;;1.50;;
41719;SDS011;27405;53.316;-6.294;2023-02-15T14:30:52;22.45;;;2.90;;
41719;SDS011;27405;53.316;-6.294;2023-02-15T14:35:50;15.73;;;3.28;;
41719;SDS011;27405;53.316;-6.294;2023-02-15T14:38:42;12.35;;;2.05;;
41719;SDS011;27405;53.316;-6.294;2023-02-15T14:49:31;15.20;;;2.05;;
41719;SDS011;27405;53.316;-6.294;2023-02-15T14:52:02;10.35;;;2.40;;
41719;SDS011;27405;53.316;-6.294;2023-02-15T15:02:15;14.65;;;2.35;;
41719;SDS011;27405;53.316;-6.294;2023-02-15T15:07:38;14.43;;;2.50;;
41719;SDS011;27405;53.316;-6.294;2023-02-15T15:15:13;12.32;;;2.28;;
41719;SDS011;27405;53.316;-6.294;2023-02-15T15:17:58;18.10;;;2.60;;
41719;SDS011;27405;53.316;-6.294;2023-02-15T15:23:33;10.18;;;1.88;;
41719;SDS011;27405;53.316;-6.294;2023-02-15T15:33:57;13.65;;;2.80;;
41719;SDS011;27405;53.316;-6.294;2023-02-15T15:36:45;11.57;;;2.22;;
41719;SDS011;27405;53.316;-6.294;2023-02-15T15:46:11;12.77;;;1.98;;
41719;SDS011;27405;53.316;-6.294;2023-02-15T15:48:44;5.72;;;1.50;;
41719;SDS011;27405;53.316;-6.294;2023-02-15T15:51:53;11.10;;;2.08;;
41719;SDS011;27405;53.316;-6.294;2023-02-15T15:54:03;11.93;;;1.90;;
41719;SDS011;27405;53.316;-6.294;2023-02-15T15:56:33;15.35;;;2.35;;
41719;SDS011;27405;53.316;-6.294;2023-02-15T15:59:07;11.43;;;2.00;;
41719;SDS011;27405;53.316;-6.294;2023-02-15T16:01:43;10.30;;;2.03;;
41719;SDS011;27405;53.316;-6.294;2023-02-15T16:04:28;10.75;;;1.92;;
41719;SDS011;27405;53.316;-6.294;2023-02-15T16:06:57;10.32;;;2.20;;
41719;SDS011;27405;53.316;-6.294;2023-02-15T16:09:38;12.80;;;2.42;;
41719;SDS011;27405;53.316;-6.294;2023-02-15T16:12:04;15.18;;;2.10;;
41719;SDS011;27405;53.316;-6.294;2023-02-15T16:14:40;11.35;;;2.28;;
41719;SDS011;27405;53.316;-6.294;2023-02-15T16:17:08;12.82;;;2.35;;
41719;SDS011;27405;53.316;-6.294;2023-02-15T16:19:42;10.52;;;2.20;;
41719;SDS011;27405;53.316;-6.294;2023-02-15T16:22:13;18.17;;;3.85;;
41719;SDS011;27405;53.316;-6.294;2023-02-15T16:27:39;14.90;;;2.90;;
41719;SDS011;27405;53.316;-6.294;2023-02-15T16:32:54;14.05;;;2.80;;
41719;SDS011;27405;53.316;-6.294;2023-02-15T16:35:30;11.90;;;2.50;;
41719;SDS011;27405;53.316;-6.294;2023-02-15T16:37:57;19.50;;;2.83;;
41719;SDS011;27405;53.316;-6.294;2023-02-15T16:40:25;15.18;;;3.08;;
41719;SDS011;27405;53.316;-6.294;2023-02-15T16:43:00;18.35;;;3.55;;
41719;SDS011;27405;53.316;-6.294;2023-02-15T16:45:27;18.05;;;4.70;;
41719;SDS011;27405;53.316;-6.294;2023-02-15T16:47:57;23.13;;;6.53;;
41719;SDS011;27405;53.316;-6.294;2023-02-15T16:50:32;17.17;;;4.07;;
41719;SDS011;27405;53.316;-6.294;2023-02-15T16:53:00;15.43;;;3.85;;
41719;SDS011;27405;53.316;-6.294;2023-02-15T16:55:45;24.80;;;6.07;;
41719;SDS011;27405;53.316;-6.294;2023-02-15T16:58:16;19.92;;;3.85;;
41719;SDS011;27405;53.316;-6.294;2023-02-15T17:00:43;16.60;;;2.95;;
41719;SDS011;27405;53.316;-6.294;2023-02-15T17:08:12;12.63;;;3.08;;
41719;SDS011;27405;53.316;-6.294;2023-02-15T17:13:36;16.17;;;3.60;;
41719;SDS011;27405;53.316;-6.294;2023-02-15T17:18:29;16.90;;;4.82;;
41719;SDS011;27405;53.316;-6.294;2023-02-15T17:20:58;17.20;;;6.32;;
41719;SDS011;27405;53.316;-6.294;2023-02-15T17:23:46;22.63;;;5.33;;
41719;SDS011;27405;53.316;-6.294;2023-02-15T17:26:14;14.07;;;5.40;;
41719;SDS011;27405;53.316;-6.294;2023-02-15T17:28:59;18.35;;;3.15;;
41719;SDS011;27405;53.316;-6.294;2023-02-15T17:31:29;19.10;;;4.00;;
41719;SDS011;27405;53.316;-6.294;2023-02-15T17:33:57;15.27;;;4.65;;
41719;SDS011;27405;53.316;-6.294;2023-02-15T17:36:25;15.68;;;3.67;;
41719;SDS011;27405;53.316;-6.294;2023-02-15T17:41:26;16.17;;;4.00;;
41719;SDS011;27405;53.316;-6.294;2023-02-15T17:43:53;22.23;;;3.55;;
41719;SDS011;27405;53.316;-6.294;2023-02-15T17:46:19;20.13;;;3.13;;
41719;SDS011;27405;53.316;-6.294;2023-02-15T17:48:49;14.38;;;2.10;;
41719;SDS011;27405;53.316;-6.294;2023-02-15T17:51:17;15.63;;;2.60;;
41719;SDS011;27405;53.316;-6.294;2023-02-15T17:53:44;21.63;;;3.90;;
41719;SDS011;27405;53.316;-6.294;2023-02-15T17:56:33;18.35;;;5.30;;
41719;SDS011;27405;53.316;-6.294;2023-02-15T17:59:00;17.85;;;4.32;;
41719;SDS011;27405;53.316;-6.294;2023-02-15T18:01:32;18.70;;;4.45;;
41719;SDS011;27405;53.316;-6.294;2023-02-15T18:04:18;25.38;;;10.82;;
41719;SDS011;27405;53.316;-6.294;2023-02-15T18:07:04;40.38;;;16.02;;
41719;SDS011;27405;53.316;-6.294;2023-02-15T18:09:48;52.72;;;19.70;;
41719;SDS011;27405;53.316;-6.294;2023-02-15T18:12:33;27.40;;;8.82;;
41719;SDS011;27405;53.316;-6.294;2023-02-15T18:15:03;49.15;;;25.55;;
41719;SDS011;27405;53.316;-6.294;2023-02-15T18:17:35;20.92;;;6.72;;
41719;SDS011;27405;53.316;-6.294;2023-02-15T18:20:14;18.25;;;6.15;;
41719;SDS011;27405;53.316;-6.294;2023-02-15T18:22:48;20.88;;;6.07;;
41719;SDS011;27405;53.316;-6.294;2023-02-15T18:25:16;18.08;;;4.55;;
41719;SDS011;27405;53.316;-6.294;2023-02-15T18:30:17;15.70;;;3.95;;
41719;SDS011;27405;53.316;-6.294;2023-02-15T18:32:44;20.75;;;3.25;;
41719;SDS011;27405;53.316;-6.294;2023-02-15T18:35:14;19.02;;;3.30;;
41719;SDS011;27405;53.316;-6.294;2023-02-15T18:37:42;18.25;;;3.85;;
41719;SDS011;27405;53.316;-6.294;2023-02-15T18:40:13;16.63;;;3.17;;
41719;SDS011;27405;53.316;-6.294;2023-02-15T18:42:43;18.58;;;3.65;;
41719;SDS011;27405;53.316;-6.294;2023-02-15T18:47:59;18.00;;;3.70;;